sensor_id;sensor_type;location;lat;lon;timestamp;P1;durP1;ratioP1;P2;durP2;ratioP2
10827;SDS011;5467;59.334;13.512;2023-03-03T00:02:04;0.60;;;0.60;;
10827;SDS011;5467;59.334;13.512;2023-03-03T00:04:33;0.80;;;0.80;;
10827;SDS011;5467;59.334;13.512;2023-03-03T00:07:00;0.70;;;0.70;;
10827;SDS011;5467;59.334;13.512;2023-03-03T00:09:27;0.70;;;0.70;;
10827;SDS011;5467;59.334;13.512;2023-03-03T00:11:55;0.77;;;0.77;;
10827;SDS011;5467;59.334;13.512;2023-03-03T00:14:27;0.80;;;0.80;;
10827;SDS011;5467;59.334;13.512;2023-03-03T00:16:56;0.70;;;0.70;;
10827;SDS011;5467;59.334;13.512;2023-03-03T00:19:26;0.80;;;0.80;;
10827;SDS011;5467;59.334;13.512;2023-03-03T00:21:56;0.70;;;0.70;;
10827;SDS011;5467;59.334;13.512;2023-03-03T00:24:24;0.70;;;0.70;;
10827;SDS011;5467;59.334;13.512;2023-03-03T00:26:59;0.70;;;0.70;;
10827;SDS011;5467;59.334;13.512;2023-03-03T00:29:34;0.70;;;0.70;;
10827;SDS011;5467;59.334;13.512;2023-03-03T00:32:15;0.70;;;0.70;;
10827;SDS011;5467;59.334;13.512;2023-03-03T00:34:47;0.70;;;0.70;;
10827;SDS011;5467;59.334;13.512;2023-03-03T00:37:24;0.70;;;0.70;;
10827;SDS011;5467;59.334;13.512;2023-03-03T00:39:57;0.70;;;0.70;;
10827;SDS011;5467;59.334;13.512;2023-03-03T00:42:34;0.70;;;0.70;;
10827;SDS011;5467;59.334;13.512;2023-03-03T00:45:04;0.60;;;0.60;;
10827;SDS011;5467;59.334;13.512;2023-03-03T00:47:53;0.70;;;0.70;;
10827;SDS011;5467;59.334;13.512;2023-03-03T00:50:25;0.70;;;0.70;;
10827;SDS011;5467;59.334;13.512;2023-03-03T00:52:59;0.73;;;0.73;;
10827;SDS011;5467;59.334;13.512;2023-03-03T00:55:29;0.70;;;0.70;;
10827;SDS011;5467;59.334;13.512;2023-03-03T00:57:57;0.73;;;0.73;;
10827;SDS011;5467;59.334;13.512;2023-03-03T01:00:24;0.70;;;0.70;;
10827;SDS011;5467;59.334;13.512;2023-03-03T01:02:51;0.70;;;0.70;;
10827;SDS011;5467;59.334;13.512;2023-03-03T01:05:18;0.77;;;0.77;;
10827;SDS011;5467;59.334;13.512;2023-03-03T01:07:46;0.70;;;0.70;;
10827;SDS011;5467;59.334;13.512;2023-03-03T01:10:14;0.70;;;0.70;;
10827;SDS011;5467;59.334;13.512;2023-03-03T01:12:41;0.70;;;0.70;;
10827;SDS011;5467;59.334;13.512;2023-03-03T01:15:09;0.70;;;0.70;;
10827;SDS011;5467;59.334;13.512;2023-03-03T01:17:38;0.70;;;0.70;;
10827;SDS011;5467;59.334;13.512;2023-03-03T01:20:10;0.70;;;0.70;;
10827;SDS011;5467;59.334;13.512;2023-03-03T01:22:39;0.70;;;0.70;;
10827;SDS011;5467;59.334;13.512;2023-03-03T01:25:07;0.70;;;0.70;;
10827;SDS011;5467;59.334;13.512;2023-03-03T01:27:36;0.80;;;0.80;;
10827;SDS011;5467;59.334;13.512;2023-03-03T01:30:04;0.80;;;0.80;;
10827;SDS011;5467;59.334;13.512;2023-03-03T01:32:33;0.70;;;0.70;;
10827;SDS011;5467;59.334;13.512;2023-03-03T01:35:00;0.70;;;0.70;;
10827;SDS011;5467;59.334;13.512;2023-03-03T01:37:27;0.70;;;0.70;;
10827;SDS011;5467;59.334;13.512;2023-03-03T01:39:54;0.70;;;0.70;;
10827;SDS011;5467;59.334;13.512;2023-03-03T01:42:21;0.60;;;0.60;;
10827;SDS011;5467;59.334;13.512;2023-03-03T01:47:50;0.70;;;0.70;;
10827;SDS011;5467;59.334;13.512;2023-03-03T01:50:26;0.70;;;0.70;;
10827;SDS011;5467;59.334;13.512;2023-03-03T01:52:59;0.70;;;0.70;;
10827;SDS011;5467;59.334;13.512;2023-03-03T01:55:29;0.70;;;0.70;;
10827;SDS011;5467;59.334;13.512;2023-03-03T01:58:01;0.67;;;0.67;;
10827;SDS011;5467;59.334;13.512;2023-03-03T02:00:31;0.80;;;0.80;;
10827;SDS011;5467;59.334;13.512;2023-03-03T02:03:03;0.70;;;0.70;;
10827;SDS011;5467;59.334;13.512;2023-03-03T02:05:30;0.63;;;0.63;;
10827;SDS011;5467;59.334;13.512;2023-03-03T02:07:58;0.60;;;0.60;;
10827;SDS011;5467;59.334;13.512;2023-03-03T02:10:26;0.67;;;0.67;;
10827;SDS011;5467;59.334;13.512;2023-03-03T02:12:55;0.70;;;0.70;;
10827;SDS011;5467;59.334;13.512;2023-03-03T02:15:24;0.70;;;0.70;;
10827;SDS011;5467;59.334;13.512;2023-03-03T02:17:54;0.70;;;0.70;;
10827;SDS011;5467;59.334;13.512;2023-03-03T02:20:30;0.67;;;0.67;;
10827;SDS011;5467;59.334;13.512;2023-03-03T02:23:07;0.70;;;0.70;;
10827;SDS011;5467;59.334;13.512;2023-03-03T02:25:41;0.70;;;0.70;;
10827;SDS011;5467;59.334;13.512;2023-03-03T02:28:16;0.70;;;0.70;;
10827;SDS011;5467;59.334;13.512;2023-03-03T02:30:43;0.70;;;0.70;;
10827;SDS011;5467;59.334;13.512;2023-03-03T02:33:10;0.70;;;0.70;;
10827;SDS011;5467;59.334;13.512;2023-03-03T02:35:38;0.70;;;0.70;;
10827;SDS011;5467;59.334;13.512;2023-03-03T02:38:08;0.70;;;0.70;;
10827;SDS011;5467;59.334;13.512;2023-03-03T02:40:42;0.60;;;0.60;;
10827;SDS011;5467;59.334;13.512;2023-03-03T02:43:16;0.70;;;0.70;;
10827;SDS011;5467;59.334;13.512;2023-03-03T02:45:45;0.70;;;0.70;;
10827;SDS011;5467;59.334;13.512;2023-03-03T02:48:12;0.70;;;0.70;;
10827;SDS011;5467;59.334;13.512;2023-03-03T02:50:40;0.60;;;0.60;;
10827;SDS011;5467;59.334;13.512;2023-03-03T02:53:07;0.70;;;0.70;;
10827;SDS011;5467;59.334;13.512;2023-03-03T02:55:34;0.67;;;0.67;;
10827;SDS011;5467;59.334;13.512;2023-03-03T02:58:01;0.70;;;0.70;;
10827;SDS011;5467;59.334;13.512;2023-03-03T03:00:29;0.70;;;0.70;;
10827;SDS011;5467;59.334;13.512;2023-03-03T03:02:57;0.70;;;0.70;;
10827;SDS011;5467;59.334;13.512;2023-03-03T03:05:24;0.67;;;0.67;;
10827;SDS011;5467;59.334;13.512;2023-03-03T03:07:51;0.60;;;0.60;;
10827;SDS011;5467;59.334;13.512;2023-03-03T03:10:18;0.70;;;0.70;;
10827;SDS011;5467;59.334;13.512;2023-03-03T03:12:45;0.70;;;0.70;;
10827;SDS011;5467;59.334;13.512;2023-03-03T03:15:12;0.70;;;0.70;;
10827;SDS011;5467;59.334;13.512;2023-03-03T03:17:41;0.70;;;0.70;;
10827;SDS011;5467;59.334;13.512;2023-03-03T03:20:09;0.70;;;0.70;;
10827;SDS011;5467;59.334;13.512;2023-03-03T03:22:37;0.70;;;0.70;;
10827;SDS011;5467;59.334;13.512;2023-03-03T03:25:04;0.70;;;0.70;;
10827;SDS011;5467;59.334;13.512;2023-03-03T03:27:32;0.70;;;0.70;;
10827;SDS011;5467;59.334;13.512;2023-03-03T03:29:59;0.70;;;0.70;;
10827;SDS011;5467;59.334;13.512;2023-03-03T03:32:26;0.77;;;0.77;;
10827;SDS011;5467;59.334;13.512;2023-03-03T03:34:55;0.70;;;0.70;;
10827;SDS011;5467;59.334;13.512;2023-03-03T03:37:22;0.77;;;0.77;;
10827;SDS011;5467;59.334;13.512;2023-03-03T03:39:49;0.60;;;0.60;;
10827;SDS011;5467;59.334;13.512;2023-03-03T03:42:16;0.60;;;0.60;;
10827;SDS011;5467;59.334;13.512;2023-03-03T03:44:43;0.80;;;0.80;;
10827;SDS011;5467;59.334;13.512;2023-03-03T03:47:10;0.70;;;0.70;;
10827;SDS011;5467;59.334;13.512;2023-03-03T03:49:37;0.70;;;0.70;;
10827;SDS011;5467;59.334;13.512;2023-03-03T03:52:06;0.70;;;0.70;;
10827;SDS011;5467;59.334;13.512;2023-03-03T03:54:33;0.70;;;0.70;;
10827;SDS011;5467;59.334;13.512;2023-03-03T03:57:00;0.67;;;0.67;;
10827;SDS011;5467;59.334;13.512;2023-03-03T03:59:27;0.77;;;0.77;;
10827;SDS011;5467;59.334;13.512;2023-03-03T04:01:54;0.70;;;0.70;;
10827;SDS011;5467;59.334;13.512;2023-03-03T04:04:22;0.77;;;0.77;;
10827;SDS011;5467;59.334;13.512;2023-03-03T04:06:49;0.70;;;0.70;;
10827;SDS011;5467;59.334;13.512;2023-03-03T04:09:17;0.77;;;0.77;;
10827;SDS011;5467;59.334;13.512;2023-03-03T04:11:45;0.70;;;0.70;;
10827;SDS011;5467;59.334;13.512;2023-03-03T04:14:12;0.63;;;0.63;;
10827;SDS011;5467;59.334;13.512;2023-03-03T04:16:39;0.70;;;0.70;;
10827;SDS011;5467;59.334;13.512;2023-03-03T04:19:06;0.70;;;0.70;;
10827;SDS011;5467;59.334;13.512;2023-03-03T04:21:33;0.70;;;0.70;;
10827;SDS011;5467;59.334;13.512;2023-03-03T04:24:00;0.60;;;0.60;;
10827;SDS011;5467;59.334;13.512;2023-03-03T04:26:29;0.70;;;0.70;;
10827;SDS011;5467;59.334;13.512;2023-03-03T04:28:57;0.77;;;0.77;;
10827;SDS011;5467;59.334;13.512;2023-03-03T04:31:25;0.70;;;0.70;;
10827;SDS011;5467;59.334;13.512;2023-03-03T04:33:52;2.20;;;0.90;;
10827;SDS011;5467;59.334;13.512;2023-03-03T04:36:20;0.70;;;0.70;;
10827;SDS011;5467;59.334;13.512;2023-03-03T04:38:47;0.70;;;0.70;;
10827;SDS011;5467;59.334;13.512;2023-03-03T04:41:14;0.70;;;0.70;;
10827;SDS011;5467;59.334;13.512;2023-03-03T04:43:42;0.70;;;0.70;;
10827;SDS011;5467;59.334;13.512;2023-03-03T04:46:09;0.80;;;0.80;;
10827;SDS011;5467;59.334;13.512;2023-03-03T04:48:37;0.80;;;0.80;;
10827;SDS011;5467;59.334;13.512;2023-03-03T04:51:04;0.77;;;0.77;;
10827;SDS011;5467;59.334;13.512;2023-03-03T04:53:31;0.80;;;0.80;;
10827;SDS011;5467;59.334;13.512;2023-03-03T04:55:58;0.70;;;0.70;;
10827;SDS011;5467;59.334;13.512;2023-03-03T04:58:26;0.77;;;0.77;;
10827;SDS011;5467;59.334;13.512;2023-03-03T05:00:55;0.87;;;0.87;;
10827;SDS011;5467;59.334;13.512;2023-03-03T05:03:22;0.80;;;0.80;;
10827;SDS011;5467;59.334;13.512;2023-03-03T05:05:51;0.90;;;0.90;;
10827;SDS011;5467;59.334;13.512;2023-03-03T05:08:18;0.80;;;0.80;;
10827;SDS011;5467;59.334;13.512;2023-03-03T05:10:45;0.90;;;0.90;;
10827;SDS011;5467;59.334;13.512;2023-03-03T05:13:12;0.90;;;0.90;;
10827;SDS011;5467;59.334;13.512;2023-03-03T05:15:41;0.80;;;0.80;;
10827;SDS011;5467;59.334;13.512;2023-03-03T05:18:09;0.80;;;0.80;;
10827;SDS011;5467;59.334;13.512;2023-03-03T05:20:38;0.73;;;0.73;;
10827;SDS011;5467;59.334;13.512;2023-03-03T05:23:06;0.80;;;0.80;;
10827;SDS011;5467;59.334;13.512;2023-03-03T05:25:33;0.80;;;0.80;;
10827;SDS011;5467;59.334;13.512;2023-03-03T05:28:00;0.70;;;0.70;;
10827;SDS011;5467;59.334;13.512;2023-03-03T05:30:28;0.70;;;0.70;;
10827;SDS011;5467;59.334;13.512;2023-03-03T05:32:56;0.80;;;0.80;;
10827;SDS011;5467;59.334;13.512;2023-03-03T05:35:25;0.70;;;0.70;;
10827;SDS011;5467;59.334;13.512;2023-03-03T05:37:53;0.80;;;0.80;;
10827;SDS011;5467;59.334;13.512;2023-03-03T05:40:22;0.90;;;0.90;;
10827;SDS011;5467;59.334;13.512;2023-03-03T05:42:49;0.93;;;0.93;;
10827;SDS011;5467;59.334;13.512;2023-03-03T05:45:17;0.80;;;0.80;;
10827;SDS011;5467;59.334;13.512;2023-03-03T05:47:45;0.90;;;0.90;;
10827;SDS011;5467;59.334;13.512;2023-03-03T05:50:12;1.50;;;1.40;;
10827;SDS011;5467;59.334;13.512;2023-03-03T05:52:41;1.47;;;1.37;;
10827;SDS011;5467;59.334;13.512;2023-03-03T05:55:09;1.47;;;1.27;;
10827;SDS011;5467;59.334;13.512;2023-03-03T05:57:36;1.50;;;1.40;;
10827;SDS011;5467;59.334;13.512;2023-03-03T06:00:04;1.30;;;1.20;;
10827;SDS011;5467;59.334;13.512;2023-03-03T06:02:32;0.90;;;0.90;;
10827;SDS011;5467;59.334;13.512;2023-03-03T06:05:00;1.00;;;1.00;;
10827;SDS011;5467;59.334;13.512;2023-03-03T06:07:27;1.57;;;1.50;;
10827;SDS011;5467;59.334;13.512;2023-03-03T06:09:55;1.30;;;1.20;;
10827;SDS011;5467;59.334;13.512;2023-03-03T06:12:22;0.90;;;0.90;;
10827;SDS011;5467;59.334;13.512;2023-03-03T06:14:50;0.83;;;0.83;;
10827;SDS011;5467;59.334;13.512;2023-03-03T06:17:17;0.80;;;0.80;;
10827;SDS011;5467;59.334;13.512;2023-03-03T06:19:44;0.90;;;0.90;;
10827;SDS011;5467;59.334;13.512;2023-03-03T06:22:11;1.07;;;0.83;;
10827;SDS011;5467;59.334;13.512;2023-03-03T06:24:39;0.90;;;0.90;;
10827;SDS011;5467;59.334;13.512;2023-03-03T06:27:08;0.90;;;0.90;;
10827;SDS011;5467;59.334;13.512;2023-03-03T06:29:35;0.80;;;0.80;;
10827;SDS011;5467;59.334;13.512;2023-03-03T06:32:02;0.80;;;0.80;;
10827;SDS011;5467;59.334;13.512;2023-03-03T06:34:30;0.83;;;0.83;;
10827;SDS011;5467;59.334;13.512;2023-03-03T06:36:57;1.00;;;0.90;;
10827;SDS011;5467;59.334;13.512;2023-03-03T06:39:24;0.70;;;0.70;;
10827;SDS011;5467;59.334;13.512;2023-03-03T06:41:51;0.77;;;0.73;;
10827;SDS011;5467;59.334;13.512;2023-03-03T06:44:20;0.80;;;0.80;;
10827;SDS011;5467;59.334;13.512;2023-03-03T06:46:47;0.70;;;0.70;;
10827;SDS011;5467;59.334;13.512;2023-03-03T06:49:14;1.03;;;0.80;;
10827;SDS011;5467;59.334;13.512;2023-03-03T06:51:41;0.83;;;0.83;;
10827;SDS011;5467;59.334;13.512;2023-03-03T06:54:11;0.80;;;0.80;;
10827;SDS011;5467;59.334;13.512;2023-03-03T06:56:39;0.77;;;0.77;;
10827;SDS011;5467;59.334;13.512;2023-03-03T06:59:10;1.00;;;1.00;;
10827;SDS011;5467;59.334;13.512;2023-03-03T07:01:40;0.70;;;0.70;;
10827;SDS011;5467;59.334;13.512;2023-03-03T07:04:15;0.80;;;0.80;;
10827;SDS011;5467;59.334;13.512;2023-03-03T07:06:49;0.80;;;0.80;;
10827;SDS011;5467;59.334;13.512;2023-03-03T07:09:19;0.80;;;0.80;;
10827;SDS011;5467;59.334;13.512;2023-03-03T07:11:48;0.70;;;0.70;;
10827;SDS011;5467;59.334;13.512;2023-03-03T07:14:17;0.70;;;0.70;;
10827;SDS011;5467;59.334;13.512;2023-03-03T07:16:46;1.17;;;0.90;;
10827;SDS011;5467;59.334;13.512;2023-03-03T07:19:20;0.70;;;0.70;;
10827;SDS011;5467;59.334;13.512;2023-03-03T07:21:55;0.70;;;0.70;;
10827;SDS011;5467;59.334;13.512;2023-03-03T07:24:24;0.70;;;0.70;;
10827;SDS011;5467;59.334;13.512;2023-03-03T07:26:54;0.70;;;0.70;;
10827;SDS011;5467;59.334;13.512;2023-03-03T07:29:26;0.70;;;0.70;;
10827;SDS011;5467;59.334;13.512;2023-03-03T07:31:56;0.70;;;0.70;;
10827;SDS011;5467;59.334;13.512;2023-03-03T07:34:26;0.80;;;0.80;;
10827;SDS011;5467;59.334;13.512;2023-03-03T07:37:01;0.70;;;0.70;;
10827;SDS011;5467;59.334;13.512;2023-03-03T07:39:33;0.70;;;0.70;;
10827;SDS011;5467;59.334;13.512;2023-03-03T07:42:14;0.70;;;0.70;;
10827;SDS011;5467;59.334;13.512;2023-03-03T07:44:46;0.80;;;0.80;;
10827;SDS011;5467;59.334;13.512;2023-03-03T07:47:21;0.73;;;0.73;;
10827;SDS011;5467;59.334;13.512;2023-03-03T07:49:50;0.70;;;0.70;;
10827;SDS011;5467;59.334;13.512;2023-03-03T07:52:26;0.70;;;0.70;;
10827;SDS011;5467;59.334;13.512;2023-03-03T07:54:55;0.80;;;0.80;;
10827;SDS011;5467;59.334;13.512;2023-03-03T07:57:26;0.70;;;0.70;;
10827;SDS011;5467;59.334;13.512;2023-03-03T08:00:01;0.80;;;0.80;;
10827;SDS011;5467;59.334;13.512;2023-03-03T08:02:56;0.70;;;0.70;;
10827;SDS011;5467;59.334;13.512;2023-03-03T08:05:27;0.70;;;0.70;;
10827;SDS011;5467;59.334;13.512;2023-03-03T08:07:59;0.80;;;0.80;;
10827;SDS011;5467;59.334;13.512;2023-03-03T08:10:40;0.70;;;0.70;;
10827;SDS011;5467;59.334;13.512;2023-03-03T08:13:16;0.70;;;0.70;;
10827;SDS011;5467;59.334;13.512;2023-03-03T08:15:45;0.70;;;0.70;;
10827;SDS011;5467;59.334;13.512;2023-03-03T08:18:23;0.80;;;0.80;;
10827;SDS011;5467;59.334;13.512;2023-03-03T08:20:55;0.80;;;0.80;;
10827;SDS011;5467;59.334;13.512;2023-03-03T08:23:24;0.80;;;0.80;;
10827;SDS011;5467;59.334;13.512;2023-03-03T08:25:51;0.80;;;0.80;;
10827;SDS011;5467;59.334;13.512;2023-03-03T08:28:19;0.70;;;0.70;;
10827;SDS011;5467;59.334;13.512;2023-03-03T08:30:47;0.67;;;0.67;;
10827;SDS011;5467;59.334;13.512;2023-03-03T08:33:14;0.73;;;0.73;;
10827;SDS011;5467;59.334;13.512;2023-03-03T08:35:44;0.70;;;0.70;;
10827;SDS011;5467;59.334;13.512;2023-03-03T08:38:12;0.80;;;0.80;;
10827;SDS011;5467;59.334;13.512;2023-03-03T08:40:40;0.70;;;0.70;;
10827;SDS011;5467;59.334;13.512;2023-03-03T08:43:08;0.70;;;0.70;;
10827;SDS011;5467;59.334;13.512;2023-03-03T08:45:38;0.77;;;0.77;;
10827;SDS011;5467;59.334;13.512;2023-03-03T08:48:05;0.67;;;0.67;;
10827;SDS011;5467;59.334;13.512;2023-03-03T08:50:32;0.70;;;0.70;;
10827;SDS011;5467;59.334;13.512;2023-03-03T08:53:01;0.80;;;0.80;;
10827;SDS011;5467;59.334;13.512;2023-03-03T08:55:28;0.80;;;0.80;;
10827;SDS011;5467;59.334;13.512;2023-03-03T08:57:56;0.80;;;0.80;;
10827;SDS011;5467;59.334;13.512;2023-03-03T09:00:23;0.80;;;0.80;;
10827;SDS011;5467;59.334;13.512;2023-03-03T09:02:50;0.70;;;0.70;;
10827;SDS011;5467;59.334;13.512;2023-03-03T09:05:19;0.70;;;0.70;;
10827;SDS011;5467;59.334;13.512;2023-03-03T09:07:47;0.70;;;0.70;;
10827;SDS011;5467;59.334;13.512;2023-03-03T09:10:17;0.70;;;0.70;;
10827;SDS011;5467;59.334;13.512;2023-03-03T09:12:53;0.70;;;0.70;;
10827;SDS011;5467;59.334;13.512;2023-03-03T09:15:23;0.70;;;0.70;;
10827;SDS011;5467;59.334;13.512;2023-03-03T09:17:52;0.70;;;0.70;;
10827;SDS011;5467;59.334;13.512;2023-03-03T09:20:22;0.70;;;0.70;;
10827;SDS011;5467;59.334;13.512;2023-03-03T09:22:55;0.73;;;0.73;;
10827;SDS011;5467;59.334;13.512;2023-03-03T09:25:26;0.70;;;0.70;;
10827;SDS011;5467;59.334;13.512;2023-03-03T09:27:57;0.70;;;0.70;;
10827;SDS011;5467;59.334;13.512;2023-03-03T09:30:34;0.80;;;0.80;;
10827;SDS011;5467;59.334;13.512;2023-03-03T09:33:16;0.67;;;0.67;;
10827;SDS011;5467;59.334;13.512;2023-03-03T09:35:51;0.70;;;0.70;;
10827;SDS011;5467;59.334;13.512;2023-03-03T09:38:26;0.70;;;0.70;;
10827;SDS011;5467;59.334;13.512;2023-03-03T09:41:04;0.70;;;0.70;;
10827;SDS011;5467;59.334;13.512;2023-03-03T09:43:41;0.70;;;0.70;;
10827;SDS011;5467;59.334;13.512;2023-03-03T09:46:18;0.70;;;0.70;;
10827;SDS011;5467;59.334;13.512;2023-03-03T09:48:59;0.70;;;0.70;;
10827;SDS011;5467;59.334;13.512;2023-03-03T09:51:38;0.70;;;0.70;;
10827;SDS011;5467;59.334;13.512;2023-03-03T09:54:20;0.70;;;0.70;;
10827;SDS011;5467;59.334;13.512;2023-03-03T09:57:04;0.70;;;0.70;;
10827;SDS011;5467;59.334;13.512;2023-03-03T09:59:40;0.67;;;0.67;;
10827;SDS011;5467;59.334;13.512;2023-03-03T10:02:28;0.70;;;0.70;;
10827;SDS011;5467;59.334;13.512;2023-03-03T10:05:04;0.87;;;0.87;;
10827;SDS011;5467;59.334;13.512;2023-03-03T10:07:44;0.70;;;0.70;;
10827;SDS011;5467;59.334;13.512;2023-03-03T10:13:23;0.87;;;0.87;;
10827;SDS011;5467;59.334;13.512;2023-03-03T10:16:09;0.70;;;0.70;;
10827;SDS011;5467;59.334;13.512;2023-03-03T10:18:57;0.60;;;0.60;;
10827;SDS011;5467;59.334;13.512;2023-03-03T10:21:28;0.70;;;0.70;;
10827;SDS011;5467;59.334;13.512;2023-03-03T10:24:02;0.80;;;0.80;;
10827;SDS011;5467;59.334;13.512;2023-03-03T10:29:34;0.60;;;0.60;;
10827;SDS011;5467;59.334;13.512;2023-03-03T10:32:23;0.60;;;0.60;;
10827;SDS011;5467;59.334;13.512;2023-03-03T10:35:24;0.70;;;0.70;;
10827;SDS011;5467;59.334;13.512;2023-03-03T10:38:07;0.73;;;0.73;;
10827;SDS011;5467;59.334;13.512;2023-03-03T10:40:55;0.70;;;0.70;;
10827;SDS011;5467;59.334;13.512;2023-03-03T10:46:43;0.80;;;0.80;;
10827;SDS011;5467;59.334;13.512;2023-03-03T10:49:26;0.80;;;0.80;;
10827;SDS011;5467;59.334;13.512;2023-03-03T10:52:18;0.70;;;0.70;;
10827;SDS011;5467;59.334;13.512;2023-03-03T10:55:15;0.60;;;0.60;;
10827;SDS011;5467;59.334;13.512;2023-03-03T10:58:03;0.70;;;0.70;;
10827;SDS011;5467;59.334;13.512;2023-03-03T11:00:55;0.60;;;0.60;;
10827;SDS011;5467;59.334;13.512;2023-03-03T11:03:40;0.70;;;0.70;;
10827;SDS011;5467;59.334;13.512;2023-03-03T11:06:24;0.60;;;0.60;;
10827;SDS011;5467;59.334;13.512;2023-03-03T11:09:01;0.83;;;0.60;;
10827;SDS011;5467;59.334;13.512;2023-03-03T11:11:35;0.60;;;0.60;;
10827;SDS011;5467;59.334;13.512;2023-03-03T11:14:10;0.77;;;0.77;;
10827;SDS011;5467;59.334;13.512;2023-03-03T11:16:44;0.60;;;0.60;;
10827;SDS011;5467;59.334;13.512;2023-03-03T11:22:29;0.70;;;0.70;;
10827;SDS011;5467;59.334;13.512;2023-03-03T11:25:11;0.67;;;0.67;;
10827;SDS011;5467;59.334;13.512;2023-03-03T11:27:53;0.70;;;0.70;;
10827;SDS011;5467;59.334;13.512;2023-03-03T11:30:48;0.77;;;0.77;;
10827;SDS011;5467;59.334;13.512;2023-03-03T11:33:25;0.70;;;0.70;;
10827;SDS011;5467;59.334;13.512;2023-03-03T11:36:04;0.70;;;0.70;;
10827;SDS011;5467;59.334;13.512;2023-03-03T11:38:43;1.80;;;0.70;;
10827;SDS011;5467;59.334;13.512;2023-03-03T11:41:19;0.60;;;0.60;;
10827;SDS011;5467;59.334;13.512;2023-03-03T11:43:56;0.70;;;0.70;;
10827;SDS011;5467;59.334;13.512;2023-03-03T11:46:29;0.67;;;0.67;;
10827;SDS011;5467;59.334;13.512;2023-03-03T11:49:04;0.60;;;0.60;;
10827;SDS011;5467;59.334;13.512;2023-03-03T11:51:43;0.70;;;0.70;;
10827;SDS011;5467;59.334;13.512;2023-03-03T11:54:17;0.97;;;0.80;;
10827;SDS011;5467;59.334;13.512;2023-03-03T11:56:49;0.60;;;0.60;;
10827;SDS011;5467;59.334;13.512;2023-03-03T11:59:41;0.60;;;0.60;;
10827;SDS011;5467;59.334;13.512;2023-03-03T12:02:27;0.60;;;0.60;;
10827;SDS011;5467;59.334;13.512;2023-03-03T12:05:18;0.60;;;0.60;;
10827;SDS011;5467;59.334;13.512;2023-03-03T12:07:58;0.70;;;0.70;;
10827;SDS011;5467;59.334;13.512;2023-03-03T12:10:34;0.73;;;0.73;;
10827;SDS011;5467;59.334;13.512;2023-03-03T12:13:09;0.70;;;0.70;;
10827;SDS011;5467;59.334;13.512;2023-03-03T12:15:44;0.60;;;0.60;;
10827;SDS011;5467;59.334;13.512;2023-03-03T12:21:14;0.60;;;0.60;;
10827;SDS011;5467;59.334;13.512;2023-03-03T12:24:01;0.70;;;0.70;;
10827;SDS011;5467;59.334;13.512;2023-03-03T12:26:40;0.80;;;0.80;;
10827;SDS011;5467;59.334;13.512;2023-03-03T12:29:18;0.60;;;0.60;;
10827;SDS011;5467;59.334;13.512;2023-03-03T12:31:54;0.60;;;0.60;;
10827;SDS011;5467;59.334;13.512;2023-03-03T12:34:29;0.50;;;0.50;;
10827;SDS011;5467;59.334;13.512;2023-03-03T12:37:05;0.63;;;0.63;;
10827;SDS011;5467;59.334;13.512;2023-03-03T12:39:56;0.60;;;0.60;;
10827;SDS011;5467;59.334;13.512;2023-03-03T12:42:35;0.70;;;0.70;;
10827;SDS011;5467;59.334;13.512;2023-03-03T12:45:17;0.60;;;0.60;;
10827;SDS011;5467;59.334;13.512;2023-03-03T12:47:57;0.60;;;0.60;;
10827;SDS011;5467;59.334;13.512;2023-03-03T12:50:29;0.60;;;0.60;;
10827;SDS011;5467;59.334;13.512;2023-03-03T12:53:07;0.60;;;0.60;;
10827;SDS011;5467;59.334;13.512;2023-03-03T12:55:45;0.57;;;0.57;;
10827;SDS011;5467;59.334;13.512;2023-03-03T12:58:19;0.70;;;0.70;;
10827;SDS011;5467;59.334;13.512;2023-03-03T13:00:57;0.70;;;0.70;;
10827;SDS011;5467;59.334;13.512;2023-03-03T13:03:35;0.70;;;0.70;;
10827;SDS011;5467;59.334;13.512;2023-03-03T13:06:10;0.60;;;0.60;;
10827;SDS011;5467;59.334;13.512;2023-03-03T13:08:50;0.60;;;0.60;;
10827;SDS011;5467;59.334;13.512;2023-03-03T13:11:47;0.60;;;0.60;;
10827;SDS011;5467;59.334;13.512;2023-03-03T13:14:25;0.60;;;0.60;;
10827;SDS011;5467;59.334;13.512;2023-03-03T13:17:02;0.80;;;0.80;;
10827;SDS011;5467;59.334;13.512;2023-03-03T13:19:41;0.70;;;0.70;;
10827;SDS011;5467;59.334;13.512;2023-03-03T13:22:12;0.70;;;0.70;;
10827;SDS011;5467;59.334;13.512;2023-03-03T13:24:47;0.60;;;0.60;;
10827;SDS011;5467;59.334;13.512;2023-03-03T13:27:26;0.60;;;0.60;;
10827;SDS011;5467;59.334;13.512;2023-03-03T13:29:59;0.60;;;0.60;;
10827;SDS011;5467;59.334;13.512;2023-03-03T13:32:30;0.50;;;0.50;;
10827;SDS011;5467;59.334;13.512;2023-03-03T13:35:05;0.60;;;0.60;;
10827;SDS011;5467;59.334;13.512;2023-03-03T13:37:45;0.50;;;0.50;;
10827;SDS011;5467;59.334;13.512;2023-03-03T13:40:15;0.60;;;0.60;;
10827;SDS011;5467;59.334;13.512;2023-03-03T13:42:47;0.70;;;0.70;;
10827;SDS011;5467;59.334;13.512;2023-03-03T13:45:20;0.90;;;0.90;;
10827;SDS011;5467;59.334;13.512;2023-03-03T13:47:54;0.60;;;0.60;;
10827;SDS011;5467;59.334;13.512;2023-03-03T13:50:28;0.70;;;0.70;;
10827;SDS011;5467;59.334;13.512;2023-03-03T13:53:06;0.50;;;0.50;;
10827;SDS011;5467;59.334;13.512;2023-03-03T13:55:55;0.60;;;0.60;;
10827;SDS011;5467;59.334;13.512;2023-03-03T13:58:34;0.60;;;0.60;;
10827;SDS011;5467;59.334;13.512;2023-03-03T14:01:08;0.60;;;0.60;;
10827;SDS011;5467;59.334;13.512;2023-03-03T14:03:48;0.60;;;0.60;;
10827;SDS011;5467;59.334;13.512;2023-03-03T14:06:26;0.70;;;0.70;;
10827;SDS011;5467;59.334;13.512;2023-03-03T14:08:57;0.63;;;0.63;;
10827;SDS011;5467;59.334;13.512;2023-03-03T14:11:34;0.70;;;0.70;;
10827;SDS011;5467;59.334;13.512;2023-03-03T14:14:12;0.60;;;0.60;;
10827;SDS011;5467;59.334;13.512;2023-03-03T14:16:51;0.60;;;0.60;;
10827;SDS011;5467;59.334;13.512;2023-03-03T14:19:23;0.60;;;0.60;;
10827;SDS011;5467;59.334;13.512;2023-03-03T14:22:03;0.60;;;0.60;;
10827;SDS011;5467;59.334;13.512;2023-03-03T14:27:26;0.70;;;0.70;;
10827;SDS011;5467;59.334;13.512;2023-03-03T14:30:14;0.70;;;0.70;;
10827;SDS011;5467;59.334;13.512;2023-03-03T14:32:58;0.60;;;0.60;;
10827;SDS011;5467;59.334;13.512;2023-03-03T14:35:29;0.70;;;0.70;;
10827;SDS011;5467;59.334;13.512;2023-03-03T14:38:01;0.60;;;0.60;;
10827;SDS011;5467;59.334;13.512;2023-03-03T14:40:32;1.63;;;0.73;;
10827;SDS011;5467;59.334;13.512;2023-03-03T14:43:02;0.60;;;0.60;;
10827;SDS011;5467;59.334;13.512;2023-03-03T14:45:45;0.50;;;0.50;;
10827;SDS011;5467;59.334;13.512;2023-03-03T14:48:14;0.60;;;0.60;;
10827;SDS011;5467;59.334;13.512;2023-03-03T14:50:43;0.67;;;0.67;;
10827;SDS011;5467;59.334;13.512;2023-03-03T14:53:19;0.60;;;0.60;;
10827;SDS011;5467;59.334;13.512;2023-03-03T14:56:13;0.60;;;0.60;;
10827;SDS011;5467;59.334;13.512;2023-03-03T14:58:46;0.70;;;0.63;;
10827;SDS011;5467;59.334;13.512;2023-03-03T15:01:19;0.67;;;0.67;;
10827;SDS011;5467;59.334;13.512;2023-03-03T15:03:49;0.60;;;0.60;;
10827;SDS011;5467;59.334;13.512;2023-03-03T15:06:32;0.60;;;0.60;;
10827;SDS011;5467;59.334;13.512;2023-03-03T15:11:50;0.60;;;0.60;;
10827;SDS011;5467;59.334;13.512;2023-03-03T15:14:18;0.70;;;0.70;;
10827;SDS011;5467;59.334;13.512;2023-03-03T15:16:56;0.73;;;0.73;;
10827;SDS011;5467;59.334;13.512;2023-03-03T15:19:43;0.60;;;0.60;;
10827;SDS011;5467;59.334;13.512;2023-03-03T15:22:36;0.60;;;0.60;;
10827;SDS011;5467;59.334;13.512;2023-03-03T15:25:21;0.60;;;0.60;;
10827;SDS011;5467;59.334;13.512;2023-03-03T15:28:05;0.60;;;0.60;;
10827;SDS011;5467;59.334;13.512;2023-03-03T15:30:44;0.60;;;0.60;;
10827;SDS011;5467;59.334;13.512;2023-03-03T15:33:20;0.60;;;0.60;;
10827;SDS011;5467;59.334;13.512;2023-03-03T15:35:56;0.50;;;0.50;;
10827;SDS011;5467;59.334;13.512;2023-03-03T15:38:33;0.70;;;0.70;;
10827;SDS011;5467;59.334;13.512;2023-03-03T15:41:10;0.70;;;0.70;;
10827;SDS011;5467;59.334;13.512;2023-03-03T15:43:49;0.60;;;0.60;;
10827;SDS011;5467;59.334;13.512;2023-03-03T15:46:27;0.70;;;0.70;;